Main page
METAR-TAF:

METAR-TAF

Airports :

Friedrichshafen Airport

Friedrichshafen, Germany

latitude: 47-40N, longitude: 009-31E, elevation: 416 m

Current weather observation

The report was made 21 minutes ago, at 01:20 UTC
Wind 3 kt from the Northeast
Temperature 15°C
Humidity 94%
Pressure 1020 hPa
Visibility 10 km or more

METAR: EDNY 150120Z AUTO 05003KT 9999 // BKN064/// 15/14 Q1020

Time: 03:41 (01:41 UTC)

Forecast

The report was made 2 hours and 41 minutes ago, at 23:00 UTC
Forecast valid from 15 at 00 UTC to 15 at 24 UTC
Wind 3 kt from variable directions
Visibility 10 km or more
no clouds below 1500 m and no cumulonimbus
Becoming
from 15 at 09 UTC to 15 at 11 UTC
Wind 5 kt from the Southwest
Becoming
from 15 at 16 UTC to 15 at 18 UTC
Wind 3 kt from the Northeast

TAF: EDNY 142300Z 1500/1524 VRB03KT CAVOK BECMG 1509/1511 23005KT BECMG 1516/1518 04003KT

Weather observations and forecasts of more than 4000 airports (METAR and TAF reports).

The available stations are represented by yellow and red dots on the map.

Hover mouse over dot to see the name of the station.

Then click to see weather observations and forecasts.

To change the map : click on the green buttons with a black cross to zoom in, on the green button with a dash to zoom out, or on the green arrows for adjacent maps.


METAR-TAF: